Adrian, MN

12:42 AM CST on January 21, 2017 (GMT -0600)
Little Rock TWP | | Change Station
Active Advisory: Dense Fog Advisory

Elev 1594 ft 43.56 °N, 95.93 °W | Updated 20 seconds ago

Overcast
Overcast
34.2 °F
Feels Like 26 °F
N
12.0
Wind Variable Wind from SE

Today
High -- | Low -- °F
--% Chance of Precip.
Yesterday
High -- | Low -- °F
Precip. -- in
Pressure 29.42 in
Visibility 5.0 miles
Clouds Overcast 300 ft
Windchill 26 °F
Dew Point 34 °F
Humidity 98%
Rainfall 0.00 in
Snow Depth Not available.
7:50 AM 5:20 PM
Last Quarter, 37% visible
METAR KLYV 210555Z AUTO 13005KT 5SM -RA OVC003 01/01 A2942 RMK AO2
Pressure 29.42 in
Visibility 5.0 miles
Clouds Overcast 300 ft
Windchill 26 °F
Dew Point 34 °F
Humidity 98%
Rainfall 0.00 in
Snow Depth Not available.
7:50 AM 5:20 PM
Last Quarter, 37% visible
METAR KLYV 210555Z AUTO 13005KT 5SM -RA OVC003 01/01 A2942 RMK AO2

Get Your Daily Forecast Email!

Thanks for signing up!

Be on the lookout for a verification email in your inbox.

You'll start receiving the daily forecast at 8 AM.

×

10-Day Weather Forecast

Almanac

Astronomy

Jan. 21, 2017 Rise Set
Actual Time
Civil Twilight
Nautical Twilight
Astronomical Twilight
Moon
Length of Visible Light
Length of Day
Tomorrow will be .
, % of the Moon is Illuminated

Today's Extremes

State Highs State Lows

Community

WunderPhotos

Upload Photos

1,962,540 photos uploaded!

WunderBlog® & News

Nearby

Air Quality

  Air Quality AQ Index Pollutant
Not available.

Snow Depth

Station Depth Elevation

Earthquake Activity

City Distance Mag. Time & Date
Minimum magnitude displayed is 2.5.

Coastal Water Temperatures

Place Temperature

Stations

Nearby Weather Stations

Station Location Temp. Windchill Dew Point Humidity Wind Precip. Elev Updated Type
                   

Watches & Warnings

Dense Fog Advisory
Issued: 9:39 PM CST Jan. 20, 2017 – National Weather Service

... Dense fog advisory remains in effect until 9 am CST Saturday...

* weather conditions... occasional dense fog will continue through
the night. Visibilities will periodically fall to a quarter mile
or less.

Precautionary/preparedness actions...

A dense fog advisory means visibilities will frequently be
reduced to less than one quarter mile. If driving... slow down...
use your headlights... and leave plenty of distance ahead of you.